sensor_id;sensor_type;location;lat;lon;timestamp;P1;durP1;ratioP1;P2;durP2;ratioP2
20844;SDS011;10583;49.084;8.646;2023-05-07T00:00:47;2.73;;;2.73;;
20844;SDS011;10583;49.084;8.646;2023-05-07T00:03:16;2.73;;;2.73;;
20844;SDS011;10583;49.084;8.646;2023-05-07T00:05:44;2.70;;;2.70;;
20844;SDS011;10583;49.084;8.646;2023-05-07T00:08:11;3.00;;;3.00;;
20844;SDS011;10583;49.084;8.646;2023-05-07T00:10:38;3.20;;;3.20;;
20844;SDS011;10583;49.084;8.646;2023-05-07T00:13:05;3.83;;;3.83;;
20844;SDS011;10583;49.084;8.646;2023-05-07T00:15:32;3.67;;;3.67;;
20844;SDS011;10583;49.084;8.646;2023-05-07T00:17:58;3.33;;;3.33;;
20844;SDS011;10583;49.084;8.646;2023-05-07T00:20:27;3.03;;;3.03;;
20844;SDS011;10583;49.084;8.646;2023-05-07T00:22:54;3.20;;;3.20;;
20844;SDS011;10583;49.084;8.646;2023-05-07T00:25:20;2.93;;;2.93;;
20844;SDS011;10583;49.084;8.646;2023-05-07T00:27:47;3.80;;;3.80;;
20844;SDS011;10583;49.084;8.646;2023-05-07T00:30:14;3.23;;;3.23;;
20844;SDS011;10583;49.084;8.646;2023-05-07T00:32:41;3.10;;;3.10;;
20844;SDS011;10583;49.084;8.646;2023-05-07T00:35:10;3.50;;;3.50;;
20844;SDS011;10583;49.084;8.646;2023-05-07T00:37:38;3.40;;;3.40;;
20844;SDS011;10583;49.084;8.646;2023-05-07T00:40:05;4.23;;;4.23;;
20844;SDS011;10583;49.084;8.646;2023-05-07T00:42:33;3.90;;;3.90;;
20844;SDS011;10583;49.084;8.646;2023-05-07T00:45:00;3.40;;;3.40;;
20844;SDS011;10583;49.084;8.646;2023-05-07T00:47:27;3.00;;;3.00;;
20844;SDS011;10583;49.084;8.646;2023-05-07T00:49:55;3.10;;;3.10;;
20844;SDS011;10583;49.084;8.646;2023-05-07T00:52:23;2.57;;;2.57;;
20844;SDS011;10583;49.084;8.646;2023-05-07T00:54:53;2.93;;;2.93;;
20844;SDS011;10583;49.084;8.646;2023-05-07T00:57:21;2.93;;;2.93;;
20844;SDS011;10583;49.084;8.646;2023-05-07T00:59:49;2.80;;;2.80;;
20844;SDS011;10583;49.084;8.646;2023-05-07T01:02:18;3.10;;;3.10;;
20844;SDS011;10583;49.084;8.646;2023-05-07T01:04:44;3.27;;;3.27;;
20844;SDS011;10583;49.084;8.646;2023-05-07T01:07:11;3.23;;;3.23;;
20844;SDS011;10583;49.084;8.646;2023-05-07T01:09:38;3.07;;;3.07;;
20844;SDS011;10583;49.084;8.646;2023-05-07T01:12:07;2.80;;;2.80;;
20844;SDS011;10583;49.084;8.646;2023-05-07T01:14:35;3.20;;;3.20;;
20844;SDS011;10583;49.084;8.646;2023-05-07T01:17:02;3.00;;;3.00;;
20844;SDS011;10583;49.084;8.646;2023-05-07T01:19:29;2.90;;;2.90;;
20844;SDS011;10583;49.084;8.646;2023-05-07T01:21:58;3.47;;;3.47;;
20844;SDS011;10583;49.084;8.646;2023-05-07T01:24:32;2.73;;;2.73;;
20844;SDS011;10583;49.084;8.646;2023-05-07T01:26:59;3.13;;;3.13;;
20844;SDS011;10583;49.084;8.646;2023-05-07T01:29:27;2.83;;;2.83;;
20844;SDS011;10583;49.084;8.646;2023-05-07T01:31:55;3.20;;;3.20;;
20844;SDS011;10583;49.084;8.646;2023-05-07T01:34:25;3.10;;;3.10;;
20844;SDS011;10583;49.084;8.646;2023-05-07T01:36:53;3.07;;;3.07;;
20844;SDS011;10583;49.084;8.646;2023-05-07T01:39:22;3.27;;;3.27;;
20844;SDS011;10583;49.084;8.646;2023-05-07T01:41:53;4.07;;;4.07;;
20844;SDS011;10583;49.084;8.646;2023-05-07T01:44:20;3.67;;;3.67;;
20844;SDS011;10583;49.084;8.646;2023-05-07T01:46:48;3.53;;;3.53;;
20844;SDS011;10583;49.084;8.646;2023-05-07T01:49:15;3.70;;;3.70;;
20844;SDS011;10583;49.084;8.646;2023-05-07T01:51:42;3.67;;;3.67;;
20844;SDS011;10583;49.084;8.646;2023-05-07T01:54:09;3.43;;;3.43;;
20844;SDS011;10583;49.084;8.646;2023-05-07T01:56:36;3.80;;;3.80;;
20844;SDS011;10583;49.084;8.646;2023-05-07T01:59:04;3.70;;;3.70;;
20844;SDS011;10583;49.084;8.646;2023-05-07T02:01:31;4.10;;;4.10;;
20844;SDS011;10583;49.084;8.646;2023-05-07T02:03:58;3.93;;;3.93;;
20844;SDS011;10583;49.084;8.646;2023-05-07T02:06:25;3.80;;;3.80;;
20844;SDS011;10583;49.084;8.646;2023-05-07T02:08:52;3.93;;;3.93;;
20844;SDS011;10583;49.084;8.646;2023-05-07T02:11:19;3.97;;;3.97;;
20844;SDS011;10583;49.084;8.646;2023-05-07T02:13:46;4.07;;;4.07;;
20844;SDS011;10583;49.084;8.646;2023-05-07T02:16:14;3.60;;;3.60;;
20844;SDS011;10583;49.084;8.646;2023-05-07T02:18:40;4.23;;;4.23;;
20844;SDS011;10583;49.084;8.646;2023-05-07T02:21:07;4.00;;;4.00;;
20844;SDS011;10583;49.084;8.646;2023-05-07T02:23:34;4.00;;;4.00;;
20844;SDS011;10583;49.084;8.646;2023-05-07T02:26:00;3.97;;;3.97;;
20844;SDS011;10583;49.084;8.646;2023-05-07T02:28:27;3.70;;;3.70;;
20844;SDS011;10583;49.084;8.646;2023-05-07T02:30:54;4.30;;;4.30;;
20844;SDS011;10583;49.084;8.646;2023-05-07T02:33:25;4.90;;;4.90;;
20844;SDS011;10583;49.084;8.646;2023-05-07T02:35:51;4.50;;;4.50;;
20844;SDS011;10583;49.084;8.646;2023-05-07T02:38:18;3.83;;;3.83;;
20844;SDS011;10583;49.084;8.646;2023-05-07T02:40:45;3.77;;;3.77;;
20844;SDS011;10583;49.084;8.646;2023-05-07T02:43:12;3.90;;;3.90;;
20844;SDS011;10583;49.084;8.646;2023-05-07T02:45:40;3.43;;;3.43;;
20844;SDS011;10583;49.084;8.646;2023-05-07T02:48:08;3.40;;;3.40;;
20844;SDS011;10583;49.084;8.646;2023-05-07T02:50:36;4.20;;;4.20;;
20844;SDS011;10583;49.084;8.646;2023-05-07T02:53:02;3.33;;;3.33;;
20844;SDS011;10583;49.084;8.646;2023-05-07T02:55:29;3.90;;;3.90;;
20844;SDS011;10583;49.084;8.646;2023-05-07T02:57:57;3.50;;;3.50;;
20844;SDS011;10583;49.084;8.646;2023-05-07T03:00:24;3.67;;;3.67;;
20844;SDS011;10583;49.084;8.646;2023-05-07T03:02:51;3.83;;;3.83;;
20844;SDS011;10583;49.084;8.646;2023-05-07T03:05:18;3.70;;;3.70;;
20844;SDS011;10583;49.084;8.646;2023-05-07T03:07:46;4.43;;;4.43;;
20844;SDS011;10583;49.084;8.646;2023-05-07T03:10:13;3.97;;;3.97;;
20844;SDS011;10583;49.084;8.646;2023-05-07T03:12:40;4.10;;;4.10;;
20844;SDS011;10583;49.084;8.646;2023-05-07T03:15:08;4.00;;;4.00;;
20844;SDS011;10583;49.084;8.646;2023-05-07T03:17:36;3.90;;;3.90;;
20844;SDS011;10583;49.084;8.646;2023-05-07T03:20:03;4.53;;;4.53;;
20844;SDS011;10583;49.084;8.646;2023-05-07T03:22:30;4.20;;;4.20;;
20844;SDS011;10583;49.084;8.646;2023-05-07T03:24:59;4.20;;;4.20;;
20844;SDS011;10583;49.084;8.646;2023-05-07T03:27:25;5.03;;;5.03;;
20844;SDS011;10583;49.084;8.646;2023-05-07T03:29:52;4.27;;;4.27;;
20844;SDS011;10583;49.084;8.646;2023-05-07T03:32:19;4.70;;;4.70;;
20844;SDS011;10583;49.084;8.646;2023-05-07T03:34:45;3.80;;;3.80;;
20844;SDS011;10583;49.084;8.646;2023-05-07T03:37:12;4.33;;;4.33;;
20844;SDS011;10583;49.084;8.646;2023-05-07T03:39:39;3.70;;;3.70;;
20844;SDS011;10583;49.084;8.646;2023-05-07T03:42:07;4.07;;;4.07;;
20844;SDS011;10583;49.084;8.646;2023-05-07T03:44:34;4.33;;;4.33;;
20844;SDS011;10583;49.084;8.646;2023-05-07T03:47:01;3.97;;;3.97;;
20844;SDS011;10583;49.084;8.646;2023-05-07T03:49:28;3.70;;;3.70;;
20844;SDS011;10583;49.084;8.646;2023-05-07T03:51:54;3.50;;;3.50;;
20844;SDS011;10583;49.084;8.646;2023-05-07T03:54:21;3.80;;;3.80;;
20844;SDS011;10583;49.084;8.646;2023-05-07T03:56:48;3.83;;;3.83;;
20844;SDS011;10583;49.084;8.646;2023-05-07T03:59:17;3.90;;;3.90;;
20844;SDS011;10583;49.084;8.646;2023-05-07T04:01:44;3.60;;;3.60;;
20844;SDS011;10583;49.084;8.646;2023-05-07T04:04:10;4.73;;;4.73;;
20844;SDS011;10583;49.084;8.646;2023-05-07T04:06:37;4.43;;;4.43;;
20844;SDS011;10583;49.084;8.646;2023-05-07T04:09:04;3.57;;;3.57;;
20844;SDS011;10583;49.084;8.646;2023-05-07T04:11:31;3.57;;;3.57;;
20844;SDS011;10583;49.084;8.646;2023-05-07T04:13:58;4.00;;;4.00;;
20844;SDS011;10583;49.084;8.646;2023-05-07T04:16:26;4.27;;;4.27;;
20844;SDS011;10583;49.084;8.646;2023-05-07T04:18:53;3.80;;;3.80;;
20844;SDS011;10583;49.084;8.646;2023-05-07T04:21:20;3.70;;;3.70;;
20844;SDS011;10583;49.084;8.646;2023-05-07T04:23:47;4.23;;;4.23;;
20844;SDS011;10583;49.084;8.646;2023-05-07T04:26:15;4.87;;;4.87;;
20844;SDS011;10583;49.084;8.646;2023-05-07T04:28:42;4.23;;;4.23;;
20844;SDS011;10583;49.084;8.646;2023-05-07T04:31:14;4.13;;;4.13;;
20844;SDS011;10583;49.084;8.646;2023-05-07T04:33:42;3.90;;;3.90;;
20844;SDS011;10583;49.084;8.646;2023-05-07T04:36:09;3.80;;;3.80;;
20844;SDS011;10583;49.084;8.646;2023-05-07T04:38:36;4.23;;;4.23;;
20844;SDS011;10583;49.084;8.646;2023-05-07T04:41:04;4.00;;;4.00;;
20844;SDS011;10583;49.084;8.646;2023-05-07T04:43:32;3.80;;;3.80;;
20844;SDS011;10583;49.084;8.646;2023-05-07T04:45:58;3.70;;;3.70;;
20844;SDS011;10583;49.084;8.646;2023-05-07T04:48:26;3.97;;;3.97;;
20844;SDS011;10583;49.084;8.646;2023-05-07T04:50:55;4.30;;;4.30;;
20844;SDS011;10583;49.084;8.646;2023-05-07T04:53:22;4.97;;;4.97;;
20844;SDS011;10583;49.084;8.646;2023-05-07T04:55:49;4.80;;;4.80;;
20844;SDS011;10583;49.084;8.646;2023-05-07T04:58:22;4.90;;;4.90;;
20844;SDS011;10583;49.084;8.646;2023-05-07T05:00:49;4.70;;;4.70;;
20844;SDS011;10583;49.084;8.646;2023-05-07T05:03:15;4.60;;;4.60;;
20844;SDS011;10583;49.084;8.646;2023-05-07T05:05:42;4.10;;;4.10;;
20844;SDS011;10583;49.084;8.646;2023-05-07T05:08:10;4.00;;;4.00;;
20844;SDS011;10583;49.084;8.646;2023-05-07T05:10:37;3.87;;;3.87;;
20844;SDS011;10583;49.084;8.646;2023-05-07T05:13:05;4.50;;;4.50;;
20844;SDS011;10583;49.084;8.646;2023-05-07T05:15:32;4.13;;;4.13;;
20844;SDS011;10583;49.084;8.646;2023-05-07T05:17:59;4.40;;;4.40;;
20844;SDS011;10583;49.084;8.646;2023-05-07T05:20:26;4.27;;;4.27;;
20844;SDS011;10583;49.084;8.646;2023-05-07T05:22:53;4.00;;;4.00;;
20844;SDS011;10583;49.084;8.646;2023-05-07T05:25:21;4.13;;;4.13;;
20844;SDS011;10583;49.084;8.646;2023-05-07T05:27:48;3.97;;;3.97;;
20844;SDS011;10583;49.084;8.646;2023-05-07T05:30:15;4.07;;;4.07;;
20844;SDS011;10583;49.084;8.646;2023-05-07T05:32:42;3.90;;;3.90;;
20844;SDS011;10583;49.084;8.646;2023-05-07T05:35:08;3.90;;;3.90;;
20844;SDS011;10583;49.084;8.646;2023-05-07T05:37:36;3.60;;;3.60;;
20844;SDS011;10583;49.084;8.646;2023-05-07T05:40:03;3.67;;;3.67;;
20844;SDS011;10583;49.084;8.646;2023-05-07T05:42:32;3.37;;;3.37;;
20844;SDS011;10583;49.084;8.646;2023-05-07T05:44:59;3.50;;;3.50;;
20844;SDS011;10583;49.084;8.646;2023-05-07T05:47:26;3.50;;;3.50;;
20844;SDS011;10583;49.084;8.646;2023-05-07T05:49:52;3.80;;;3.80;;
20844;SDS011;10583;49.084;8.646;2023-05-07T05:52:19;3.47;;;3.47;;
20844;SDS011;10583;49.084;8.646;2023-05-07T05:54:48;3.20;;;3.20;;
20844;SDS011;10583;49.084;8.646;2023-05-07T05:57:15;3.23;;;3.23;;
20844;SDS011;10583;49.084;8.646;2023-05-07T05:59:43;3.80;;;3.80;;
20844;SDS011;10583;49.084;8.646;2023-05-07T06:02:12;3.23;;;3.23;;
20844;SDS011;10583;49.084;8.646;2023-05-07T06:04:39;3.53;;;3.53;;
20844;SDS011;10583;49.084;8.646;2023-05-07T06:07:05;3.30;;;3.30;;
20844;SDS011;10583;49.084;8.646;2023-05-07T06:09:32;3.20;;;3.20;;
20844;SDS011;10583;49.084;8.646;2023-05-07T06:11:59;3.57;;;3.57;;
20844;SDS011;10583;49.084;8.646;2023-05-07T06:14:26;3.57;;;3.57;;
20844;SDS011;10583;49.084;8.646;2023-05-07T06:16:54;3.60;;;3.60;;
20844;SDS011;10583;49.084;8.646;2023-05-07T06:19:20;3.13;;;3.13;;
20844;SDS011;10583;49.084;8.646;2023-05-07T06:21:48;3.10;;;3.10;;
20844;SDS011;10583;49.084;8.646;2023-05-07T06:24:15;3.00;;;3.00;;
20844;SDS011;10583;49.084;8.646;2023-05-07T06:26:42;3.03;;;3.03;;
20844;SDS011;10583;49.084;8.646;2023-05-07T06:29:09;2.80;;;2.80;;
20844;SDS011;10583;49.084;8.646;2023-05-07T06:31:35;2.60;;;2.60;;
20844;SDS011;10583;49.084;8.646;2023-05-07T06:34:03;2.60;;;2.60;;
20844;SDS011;10583;49.084;8.646;2023-05-07T06:36:31;3.00;;;3.00;;
20844;SDS011;10583;49.084;8.646;2023-05-07T06:38:57;2.80;;;2.80;;
20844;SDS011;10583;49.084;8.646;2023-05-07T06:41:25;3.30;;;3.30;;
20844;SDS011;10583;49.084;8.646;2023-05-07T06:43:51;2.70;;;2.70;;
20844;SDS011;10583;49.084;8.646;2023-05-07T06:46:18;2.80;;;2.80;;
20844;SDS011;10583;49.084;8.646;2023-05-07T06:48:45;2.50;;;2.50;;
20844;SDS011;10583;49.084;8.646;2023-05-07T06:51:16;2.70;;;2.70;;
20844;SDS011;10583;49.084;8.646;2023-05-07T06:53:43;2.70;;;2.70;;
20844;SDS011;10583;49.084;8.646;2023-05-07T06:56:10;3.00;;;3.00;;
20844;SDS011;10583;49.084;8.646;2023-05-07T06:58:37;2.57;;;2.57;;
20844;SDS011;10583;49.084;8.646;2023-05-07T07:01:04;2.90;;;2.90;;
20844;SDS011;10583;49.084;8.646;2023-05-07T07:03:31;2.67;;;2.67;;
20844;SDS011;10583;49.084;8.646;2023-05-07T07:05:58;2.50;;;2.50;;
20844;SDS011;10583;49.084;8.646;2023-05-07T07:08:28;2.90;;;2.90;;
20844;SDS011;10583;49.084;8.646;2023-05-07T07:10:55;2.47;;;2.47;;
20844;SDS011;10583;49.084;8.646;2023-05-07T07:13:22;2.33;;;2.33;;
20844;SDS011;10583;49.084;8.646;2023-05-07T07:15:48;2.67;;;2.67;;
20844;SDS011;10583;49.084;8.646;2023-05-07T07:18:15;2.43;;;2.43;;
20844;SDS011;10583;49.084;8.646;2023-05-07T07:20:42;2.43;;;2.43;;
20844;SDS011;10583;49.084;8.646;2023-05-07T07:23:10;2.40;;;2.40;;
20844;SDS011;10583;49.084;8.646;2023-05-07T07:25:38;2.30;;;2.30;;
20844;SDS011;10583;49.084;8.646;2023-05-07T07:28:05;1.85;;;1.85;;
20844;SDS011;10583;49.084;8.646;2023-05-07T07:30:32;2.03;;;2.03;;
20844;SDS011;10583;49.084;8.646;2023-05-07T07:32:59;1.83;;;1.83;;
20844;SDS011;10583;49.084;8.646;2023-05-07T07:35:28;1.92;;;1.92;;
20844;SDS011;10583;49.084;8.646;2023-05-07T07:37:55;2.08;;;2.08;;
20844;SDS011;10583;49.084;8.646;2023-05-07T07:40:22;1.98;;;1.98;;
20844;SDS011;10583;49.084;8.646;2023-05-07T07:42:51;2.17;;;2.17;;
20844;SDS011;10583;49.084;8.646;2023-05-07T07:45:18;1.90;;;1.90;;
20844;SDS011;10583;49.084;8.646;2023-05-07T07:47:45;2.33;;;2.33;;
20844;SDS011;10583;49.084;8.646;2023-05-07T07:50:12;1.70;;;1.70;;
20844;SDS011;10583;49.084;8.646;2023-05-07T07:52:39;2.00;;;2.00;;
20844;SDS011;10583;49.084;8.646;2023-05-07T07:55:06;1.60;;;1.60;;
20844;SDS011;10583;49.084;8.646;2023-05-07T07:57:34;1.60;;;1.60;;
20844;SDS011;10583;49.084;8.646;2023-05-07T08:00:06;1.52;;;1.52;;
20844;SDS011;10583;49.084;8.646;2023-05-07T08:02:35;1.48;;;1.48;;
20844;SDS011;10583;49.084;8.646;2023-05-07T08:05:02;1.67;;;1.67;;
20844;SDS011;10583;49.084;8.646;2023-05-07T08:09:58;1.80;;;1.80;;
20844;SDS011;10583;49.084;8.646;2023-05-07T08:12:25;1.92;;;1.92;;
20844;SDS011;10583;49.084;8.646;2023-05-07T08:14:52;1.30;;;1.30;;
20844;SDS011;10583;49.084;8.646;2023-05-07T08:17:21;1.60;;;1.60;;
20844;SDS011;10583;49.084;8.646;2023-05-07T08:19:48;1.40;;;1.40;;
20844;SDS011;10583;49.084;8.646;2023-05-07T08:22:15;1.65;;;1.65;;
20844;SDS011;10583;49.084;8.646;2023-05-07T08:24:43;1.67;;;1.67;;
20844;SDS011;10583;49.084;8.646;2023-05-07T08:27:10;1.60;;;1.60;;
20844;SDS011;10583;49.084;8.646;2023-05-07T08:29:36;1.45;;;1.45;;
20844;SDS011;10583;49.084;8.646;2023-05-07T08:32:03;1.77;;;1.77;;
20844;SDS011;10583;49.084;8.646;2023-05-07T08:34:31;1.55;;;1.55;;
20844;SDS011;10583;49.084;8.646;2023-05-07T08:36:58;1.60;;;1.60;;
20844;SDS011;10583;49.084;8.646;2023-05-07T08:39:25;1.70;;;1.70;;
20844;SDS011;10583;49.084;8.646;2023-05-07T08:41:52;1.67;;;1.67;;
20844;SDS011;10583;49.084;8.646;2023-05-07T08:44:22;1.50;;;1.50;;
20844;SDS011;10583;49.084;8.646;2023-05-07T08:46:52;1.50;;;1.50;;
20844;SDS011;10583;49.084;8.646;2023-05-07T08:49:20;1.60;;;1.60;;
20844;SDS011;10583;49.084;8.646;2023-05-07T08:51:49;1.60;;;1.60;;
20844;SDS011;10583;49.084;8.646;2023-05-07T08:54:16;1.60;;;1.60;;
20844;SDS011;10583;49.084;8.646;2023-05-07T08:56:44;1.50;;;1.50;;
20844;SDS011;10583;49.084;8.646;2023-05-07T08:59:11;2.25;;;2.25;;
20844;SDS011;10583;49.084;8.646;2023-05-07T09:01:38;2.03;;;2.03;;
20844;SDS011;10583;49.084;8.646;2023-05-07T09:04:05;1.92;;;1.92;;
20844;SDS011;10583;49.084;8.646;2023-05-07T09:06:32;1.75;;;1.75;;
20844;SDS011;10583;49.084;8.646;2023-05-07T09:09:01;2.30;;;2.30;;
20844;SDS011;10583;49.084;8.646;2023-05-07T09:11:30;1.80;;;1.80;;
20844;SDS011;10583;49.084;8.646;2023-05-07T09:13:58;1.58;;;1.58;;
20844;SDS011;10583;49.084;8.646;2023-05-07T09:16:26;1.90;;;1.90;;
20844;SDS011;10583;49.084;8.646;2023-05-07T09:18:54;1.70;;;1.70;;
20844;SDS011;10583;49.084;8.646;2023-05-07T09:21:23;2.00;;;2.00;;
20844;SDS011;10583;49.084;8.646;2023-05-07T09:23:50;2.20;;;2.20;;
20844;SDS011;10583;49.084;8.646;2023-05-07T09:26:19;2.10;;;2.10;;
20844;SDS011;10583;49.084;8.646;2023-05-07T09:28:48;1.90;;;1.90;;
20844;SDS011;10583;49.084;8.646;2023-05-07T09:31:15;1.75;;;1.75;;
20844;SDS011;10583;49.084;8.646;2023-05-07T09:33:42;1.70;;;1.70;;
20844;SDS011;10583;49.084;8.646;2023-05-07T09:36:09;1.73;;;1.73;;
20844;SDS011;10583;49.084;8.646;2023-05-07T09:38:36;1.80;;;1.80;;
20844;SDS011;10583;49.084;8.646;2023-05-07T09:41:04;1.80;;;1.80;;
20844;SDS011;10583;49.084;8.646;2023-05-07T09:43:34;1.60;;;1.60;;
20844;SDS011;10583;49.084;8.646;2023-05-07T09:46:06;1.92;;;1.92;;
20844;SDS011;10583;49.084;8.646;2023-05-07T09:48:39;1.70;;;1.70;;
20844;SDS011;10583;49.084;8.646;2023-05-07T09:51:15;1.60;;;1.60;;
20844;SDS011;10583;49.084;8.646;2023-05-07T09:53:48;1.70;;;1.70;;
20844;SDS011;10583;49.084;8.646;2023-05-07T09:56:18;1.70;;;1.70;;
20844;SDS011;10583;49.084;8.646;2023-05-07T09:58:47;1.80;;;1.80;;
20844;SDS011;10583;49.084;8.646;2023-05-07T10:01:16;1.58;;;1.58;;
20844;SDS011;10583;49.084;8.646;2023-05-07T10:03:44;1.83;;;1.83;;
20844;SDS011;10583;49.084;8.646;2023-05-07T10:06:11;1.80;;;1.80;;
20844;SDS011;10583;49.084;8.646;2023-05-07T10:08:40;1.77;;;1.77;;
20844;SDS011;10583;49.084;8.646;2023-05-07T10:11:09;1.95;;;1.95;;
20844;SDS011;10583;49.084;8.646;2023-05-07T10:13:36;1.63;;;1.63;;
20844;SDS011;10583;49.084;8.646;2023-05-07T10:16:05;1.63;;;1.63;;
20844;SDS011;10583;49.084;8.646;2023-05-07T10:18:32;1.45;;;1.45;;
20844;SDS011;10583;49.084;8.646;2023-05-07T10:21:01;1.67;;;1.67;;
20844;SDS011;10583;49.084;8.646;2023-05-07T10:23:32;1.45;;;1.45;;
20844;SDS011;10583;49.084;8.646;2023-05-07T10:26:00;1.45;;;1.45;;
20844;SDS011;10583;49.084;8.646;2023-05-07T10:28:30;1.95;;;1.95;;
20844;SDS011;10583;49.084;8.646;2023-05-07T10:31:09;1.83;;;1.83;;
20844;SDS011;10583;49.084;8.646;2023-05-07T10:33:45;1.40;;;1.40;;
20844;SDS011;10583;49.084;8.646;2023-05-07T10:36:13;1.60;;;1.60;;
20844;SDS011;10583;49.084;8.646;2023-05-07T10:38:40;1.70;;;1.70;;
20844;SDS011;10583;49.084;8.646;2023-05-07T10:41:07;1.70;;;1.70;;
20844;SDS011;10583;49.084;8.646;2023-05-07T10:43:40;1.60;;;1.60;;
20844;SDS011;10583;49.084;8.646;2023-05-07T10:46:14;2.03;;;2.03;;
20844;SDS011;10583;49.084;8.646;2023-05-07T10:51:41;1.90;;;1.90;;
20844;SDS011;10583;49.084;8.646;2023-05-07T10:54:20;1.63;;;1.63;;
20844;SDS011;10583;49.084;8.646;2023-05-07T10:56:48;1.77;;;1.77;;
20844;SDS011;10583;49.084;8.646;2023-05-07T10:59:31;1.70;;;1.70;;
20844;SDS011;10583;49.084;8.646;2023-05-07T11:02:08;1.98;;;1.98;;
20844;SDS011;10583;49.084;8.646;2023-05-07T11:04:36;1.65;;;1.65;;
20844;SDS011;10583;49.084;8.646;2023-05-07T11:10:01;1.50;;;1.50;;
20844;SDS011;10583;49.084;8.646;2023-05-07T11:15:37;1.75;;;1.75;;
20844;SDS011;10583;49.084;8.646;2023-05-07T11:18:08;1.95;;;1.95;;
20844;SDS011;10583;49.084;8.646;2023-05-07T11:20:55;1.65;;;1.65;;
20844;SDS011;10583;49.084;8.646;2023-05-07T11:26:21;1.98;;;1.98;;
20844;SDS011;10583;49.084;8.646;2023-05-07T11:28:48;1.58;;;1.58;;
20844;SDS011;10583;49.084;8.646;2023-05-07T11:31:15;1.60;;;1.60;;
20844;SDS011;10583;49.084;8.646;2023-05-07T11:33:48;1.80;;;1.80;;
20844;SDS011;10583;49.084;8.646;2023-05-07T11:36:16;1.70;;;1.70;;
20844;SDS011;10583;49.084;8.646;2023-05-07T11:38:44;1.98;;;1.98;;
20844;SDS011;10583;49.084;8.646;2023-05-07T11:41:10;1.80;;;1.80;;
20844;SDS011;10583;49.084;8.646;2023-05-07T11:43:38;1.70;;;1.70;;
20844;SDS011;10583;49.084;8.646;2023-05-07T11:46:19;1.58;;;1.58;;
20844;SDS011;10583;49.084;8.646;2023-05-07T11:48:46;1.50;;;1.50;;
20844;SDS011;10583;49.084;8.646;2023-05-07T11:51:18;1.83;;;1.83;;
20844;SDS011;10583;49.084;8.646;2023-05-07T11:53:45;1.73;;;1.73;;
20844;SDS011;10583;49.084;8.646;2023-05-07T11:56:13;1.70;;;1.70;;
20844;SDS011;10583;49.084;8.646;2023-05-07T11:58:42;1.60;;;1.60;;
20844;SDS011;10583;49.084;8.646;2023-05-07T12:01:10;1.85;;;1.85;;
20844;SDS011;10583;49.084;8.646;2023-05-07T12:03:39;1.70;;;1.70;;
20844;SDS011;10583;49.084;8.646;2023-05-07T12:06:10;1.80;;;1.80;;
20844;SDS011;10583;49.084;8.646;2023-05-07T12:08:38;1.60;;;1.60;;
20844;SDS011;10583;49.084;8.646;2023-05-07T12:11:09;1.55;;;1.55;;
20844;SDS011;10583;49.084;8.646;2023-05-07T12:13:39;1.60;;;1.60;;
20844;SDS011;10583;49.084;8.646;2023-05-07T12:16:07;1.60;;;1.60;;
20844;SDS011;10583;49.084;8.646;2023-05-07T12:18:34;2.08;;;2.08;;
20844;SDS011;10583;49.084;8.646;2023-05-07T12:21:02;1.80;;;1.80;;
20844;SDS011;10583;49.084;8.646;2023-05-07T12:23:33;1.75;;;1.75;;
20844;SDS011;10583;49.084;8.646;2023-05-07T12:26:00;1.60;;;1.60;;
20844;SDS011;10583;49.084;8.646;2023-05-07T12:28:28;1.50;;;1.50;;
20844;SDS011;10583;49.084;8.646;2023-05-07T12:30:55;1.75;;;1.75;;
20844;SDS011;10583;49.084;8.646;2023-05-07T12:33:23;1.77;;;1.77;;
20844;SDS011;10583;49.084;8.646;2023-05-07T12:35:53;1.63;;;1.63;;
20844;SDS011;10583;49.084;8.646;2023-05-07T12:38:21;1.40;;;1.40;;
20844;SDS011;10583;49.084;8.646;2023-05-07T12:40:50;1.50;;;1.50;;
20844;SDS011;10583;49.084;8.646;2023-05-07T12:43:20;1.52;;;1.52;;
20844;SDS011;10583;49.084;8.646;2023-05-07T12:45:48;1.50;;;1.50;;
20844;SDS011;10583;49.084;8.646;2023-05-07T12:48:16;1.52;;;1.52;;
20844;SDS011;10583;49.084;8.646;2023-05-07T12:50:43;1.60;;;1.60;;
20844;SDS011;10583;49.084;8.646;2023-05-07T12:53:10;1.45;;;1.45;;
20844;SDS011;10583;49.084;8.646;2023-05-07T12:55:41;1.48;;;1.48;;
20844;SDS011;10583;49.084;8.646;2023-05-07T12:58:15;1.65;;;1.65;;
20844;SDS011;10583;49.084;8.646;2023-05-07T13:00:43;1.77;;;1.77;;
20844;SDS011;10583;49.084;8.646;2023-05-07T13:03:10;1.60;;;1.60;;
20844;SDS011;10583;49.084;8.646;2023-05-07T13:05:37;1.85;;;1.85;;
20844;SDS011;10583;49.084;8.646;2023-05-07T13:08:05;1.80;;;1.80;;
20844;SDS011;10583;49.084;8.646;2023-05-07T13:10:34;4.00;;;4.00;;
20844;SDS011;10583;49.084;8.646;2023-05-07T13:13:01;3.97;;;3.97;;
20844;SDS011;10583;49.084;8.646;2023-05-07T13:15:30;4.07;;;4.07;;
20844;SDS011;10583;49.084;8.646;2023-05-07T13:17:56;6.72;;;6.72;;
20844;SDS011;10583;49.084;8.646;2023-05-07T13:20:23;1.60;;;1.60;;
20844;SDS011;10583;49.084;8.646;2023-05-07T13:22:50;1.80;;;1.80;;
20844;SDS011;10583;49.084;8.646;2023-05-07T13:25:17;1.67;;;1.67;;
20844;SDS011;10583;49.084;8.646;2023-05-07T13:27:44;1.90;;;1.90;;
20844;SDS011;10583;49.084;8.646;2023-05-07T13:30:10;1.80;;;1.80;;
20844;SDS011;10583;49.084;8.646;2023-05-07T13:32:39;1.80;;;1.80;;
20844;SDS011;10583;49.084;8.646;2023-05-07T13:35:06;2.17;;;2.17;;
20844;SDS011;10583;49.084;8.646;2023-05-07T13:37:33;1.77;;;1.77;;
20844;SDS011;10583;49.084;8.646;2023-05-07T13:40:00;3.77;;;3.77;;
20844;SDS011;10583;49.084;8.646;2023-05-07T13:42:27;3.10;;;3.10;;
20844;SDS011;10583;49.084;8.646;2023-05-07T13:44:54;2.33;;;2.33;;
20844;SDS011;10583;49.084;8.646;2023-05-07T13:47:21;1.70;;;1.70;;
20844;SDS011;10583;49.084;8.646;2023-05-07T13:49:49;1.30;;;1.30;;
20844;SDS011;10583;49.084;8.646;2023-05-07T13:52:16;1.40;;;1.40;;
20844;SDS011;10583;49.084;8.646;2023-05-07T13:54:43;1.97;;;1.97;;
20844;SDS011;10583;49.084;8.646;2023-05-07T13:57:10;2.40;;;2.40;;
20844;SDS011;10583;49.084;8.646;2023-05-07T13:59:36;1.93;;;1.93;;
20844;SDS011;10583;49.084;8.646;2023-05-07T14:02:03;2.97;;;2.97;;
20844;SDS011;10583;49.084;8.646;2023-05-07T14:04:30;2.50;;;2.50;;
20844;SDS011;10583;49.084;8.646;2023-05-07T14:06:58;2.63;;;2.63;;
20844;SDS011;10583;49.084;8.646;2023-05-07T14:09:25;5.07;;;4.97;;
20844;SDS011;10583;49.084;8.646;2023-05-07T14:11:52;4.70;;;4.60;;
20844;SDS011;10583;49.084;8.646;2023-05-07T14:14:18;3.27;;;3.27;;
20844;SDS011;10583;49.084;8.646;2023-05-07T14:16:45;3.83;;;3.73;;
20844;SDS011;10583;49.084;8.646;2023-05-07T14:19:12;3.43;;;3.40;;
20844;SDS011;10583;49.084;8.646;2023-05-07T14:21:39;3.13;;;3.13;;
20844;SDS011;10583;49.084;8.646;2023-05-07T14:24:07;2.47;;;2.47;;
20844;SDS011;10583;49.084;8.646;2023-05-07T14:26:34;3.03;;;3.03;;
20844;SDS011;10583;49.084;8.646;2023-05-07T14:29:01;3.30;;;3.30;;
20844;SDS011;10583;49.084;8.646;2023-05-07T14:31:28;3.07;;;3.07;;
20844;SDS011;10583;49.084;8.646;2023-05-07T14:33:55;2.70;;;2.70;;
20844;SDS011;10583;49.084;8.646;2023-05-07T14:36:23;2.83;;;2.83;;
20844;SDS011;10583;49.084;8.646;2023-05-07T14:38:51;3.10;;;3.10;;
20844;SDS011;10583;49.084;8.646;2023-05-07T14:41:20;3.23;;;3.23;;
20844;SDS011;10583;49.084;8.646;2023-05-07T14:43:48;3.10;;;3.10;;
20844;SDS011;10583;49.084;8.646;2023-05-07T14:46:16;2.90;;;2.90;;
20844;SDS011;10583;49.084;8.646;2023-05-07T14:48:43;2.77;;;2.77;;
20844;SDS011;10583;49.084;8.646;2023-05-07T14:51:10;3.30;;;3.30;;
20844;SDS011;10583;49.084;8.646;2023-05-07T14:53:37;2.73;;;2.73;;
20844;SDS011;10583;49.084;8.646;2023-05-07T14:56:04;2.90;;;2.90;;
20844;SDS011;10583;49.084;8.646;2023-05-07T14:58:32;3.40;;;3.40;;
20844;SDS011;10583;49.084;8.646;2023-05-07T15:00:59;3.30;;;3.30;;
20844;SDS011;10583;49.084;8.646;2023-05-07T15:03:27;2.77;;;2.77;;
20844;SDS011;10583;49.084;8.646;2023-05-07T15:05:54;2.90;;;2.90;;